sensor_id;sensor_type;location;lat;lon;timestamp;P1;durP1;ratioP1;P2;durP2;ratioP2
49948;SDS011;35840;45.982;8.890;2024-01-15T00:00:21;16.38;;;9.13;;
49948;SDS011;35840;45.982;8.890;2024-01-15T00:02:47;11.35;;;8.25;;
49948;SDS011;35840;45.982;8.890;2024-01-15T00:05:14;12.80;;;7.97;;
49948;SDS011;35840;45.982;8.890;2024-01-15T00:07:41;12.88;;;8.57;;
49948;SDS011;35840;45.982;8.890;2024-01-15T00:10:08;11.27;;;7.85;;
49948;SDS011;35840;45.982;8.890;2024-01-15T00:12:35;15.82;;;9.93;;
49948;SDS011;35840;45.982;8.890;2024-01-15T00:15:02;16.20;;;10.20;;
49948;SDS011;35840;45.982;8.890;2024-01-15T00:17:28;12.52;;;8.05;;
49948;SDS011;35840;45.982;8.890;2024-01-15T00:19:55;18.05;;;9.05;;
49948;SDS011;35840;45.982;8.890;2024-01-15T00:22:24;14.90;;;9.88;;
49948;SDS011;35840;45.982;8.890;2024-01-15T00:24:52;17.30;;;10.13;;
49948;SDS011;35840;45.982;8.890;2024-01-15T00:27:18;16.90;;;10.77;;
49948;SDS011;35840;45.982;8.890;2024-01-15T00:29:45;18.95;;;11.50;;
49948;SDS011;35840;45.982;8.890;2024-01-15T00:32:12;14.65;;;9.20;;
49948;SDS011;35840;45.982;8.890;2024-01-15T00:34:39;13.23;;;8.85;;
49948;SDS011;35840;45.982;8.890;2024-01-15T00:37:06;16.65;;;9.27;;
49948;SDS011;35840;45.982;8.890;2024-01-15T00:39:33;18.25;;;9.52;;
49948;SDS011;35840;45.982;8.890;2024-01-15T00:42:00;14.48;;;8.77;;
49948;SDS011;35840;45.982;8.890;2024-01-15T00:44:27;16.15;;;9.02;;
49948;SDS011;35840;45.982;8.890;2024-01-15T00:46:53;16.27;;;11.02;;
49948;SDS011;35840;45.982;8.890;2024-01-15T00:49:20;14.02;;;10.00;;
49948;SDS011;35840;45.982;8.890;2024-01-15T00:51:47;14.00;;;9.43;;
49948;SDS011;35840;45.982;8.890;2024-01-15T00:54:14;15.85;;;9.73;;
49948;SDS011;35840;45.982;8.890;2024-01-15T00:56:41;14.80;;;9.70;;
49948;SDS011;35840;45.982;8.890;2024-01-15T00:59:07;18.63;;;10.77;;
49948;SDS011;35840;45.982;8.890;2024-01-15T01:01:36;13.32;;;8.98;;
49948;SDS011;35840;45.982;8.890;2024-01-15T01:04:04;15.52;;;9.88;;
49948;SDS011;35840;45.982;8.890;2024-01-15T01:06:31;15.95;;;9.70;;
49948;SDS011;35840;45.982;8.890;2024-01-15T01:08:59;12.07;;;8.48;;
49948;SDS011;35840;45.982;8.890;2024-01-15T01:11:26;10.98;;;7.80;;
49948;SDS011;35840;45.982;8.890;2024-01-15T01:13:53;16.10;;;9.85;;
49948;SDS011;35840;45.982;8.890;2024-01-15T01:16:20;14.57;;;10.23;;
49948;SDS011;35840;45.982;8.890;2024-01-15T01:18:46;15.50;;;10.13;;
49948;SDS011;35840;45.982;8.890;2024-01-15T01:21:13;14.98;;;10.27;;
49948;SDS011;35840;45.982;8.890;2024-01-15T01:23:40;16.17;;;8.55;;
49948;SDS011;35840;45.982;8.890;2024-01-15T01:26:07;14.18;;;9.55;;
49948;SDS011;35840;45.982;8.890;2024-01-15T01:28:34;14.38;;;9.73;;
49948;SDS011;35840;45.982;8.890;2024-01-15T01:31:00;17.17;;;9.35;;
49948;SDS011;35840;45.982;8.890;2024-01-15T01:33:27;13.73;;;9.68;;
49948;SDS011;35840;45.982;8.890;2024-01-15T01:35:54;16.02;;;9.93;;
49948;SDS011;35840;45.982;8.890;2024-01-15T01:38:21;17.60;;;10.70;;
49948;SDS011;35840;45.982;8.890;2024-01-15T01:40:48;11.70;;;8.93;;
49948;SDS011;35840;45.982;8.890;2024-01-15T01:43:15;14.77;;;9.82;;
49948;SDS011;35840;45.982;8.890;2024-01-15T01:45:42;11.68;;;9.02;;
49948;SDS011;35840;45.982;8.890;2024-01-15T01:48:09;12.27;;;8.70;;
49948;SDS011;35840;45.982;8.890;2024-01-15T01:50:36;9.88;;;6.88;;
49948;SDS011;35840;45.982;8.890;2024-01-15T01:53:03;11.57;;;7.05;;
49948;SDS011;35840;45.982;8.890;2024-01-15T01:55:30;13.10;;;8.27;;
49948;SDS011;35840;45.982;8.890;2024-01-15T01:58:00;12.77;;;8.70;;
49948;SDS011;35840;45.982;8.890;2024-01-15T02:00:28;15.15;;;9.27;;
49948;SDS011;35840;45.982;8.890;2024-01-15T02:02:55;18.25;;;9.43;;
49948;SDS011;35840;45.982;8.890;2024-01-15T02:05:22;12.70;;;8.63;;
49948;SDS011;35840;45.982;8.890;2024-01-15T02:07:49;12.52;;;8.25;;
49948;SDS011;35840;45.982;8.890;2024-01-15T02:10:16;15.55;;;8.90;;
49948;SDS011;35840;45.982;8.890;2024-01-15T02:12:43;14.13;;;8.55;;
49948;SDS011;35840;45.982;8.890;2024-01-15T02:15:10;11.20;;;8.07;;
49948;SDS011;35840;45.982;8.890;2024-01-15T02:17:56;13.02;;;9.15;;
49948;SDS011;35840;45.982;8.890;2024-01-15T02:20:26;14.70;;;8.82;;
49948;SDS011;35840;45.982;8.890;2024-01-15T02:22:53;11.77;;;8.68;;
49948;SDS011;35840;45.982;8.890;2024-01-15T02:25:20;18.48;;;9.88;;
49948;SDS011;35840;45.982;8.890;2024-01-15T02:27:47;14.68;;;9.45;;
49948;SDS011;35840;45.982;8.890;2024-01-15T02:30:14;13.10;;;9.63;;
49948;SDS011;35840;45.982;8.890;2024-01-15T02:32:42;14.27;;;10.35;;
49948;SDS011;35840;45.982;8.890;2024-01-15T02:35:09;15.20;;;9.88;;
49948;SDS011;35840;45.982;8.890;2024-01-15T02:37:36;13.15;;;8.73;;
49948;SDS011;35840;45.982;8.890;2024-01-15T02:40:03;12.23;;;7.70;;
49948;SDS011;35840;45.982;8.890;2024-01-15T02:42:30;12.32;;;7.63;;
49948;SDS011;35840;45.982;8.890;2024-01-15T02:44:56;13.63;;;7.97;;
49948;SDS011;35840;45.982;8.890;2024-01-15T02:47:23;12.95;;;7.75;;
49948;SDS011;35840;45.982;8.890;2024-01-15T02:49:50;11.02;;;7.28;;
49948;SDS011;35840;45.982;8.890;2024-01-15T02:52:17;10.52;;;6.82;;
49948;SDS011;35840;45.982;8.890;2024-01-15T02:54:44;10.15;;;5.85;;
49948;SDS011;35840;45.982;8.890;2024-01-15T02:57:11;9.23;;;5.32;;
49948;SDS011;35840;45.982;8.890;2024-01-15T02:59:38;7.20;;;5.28;;
49948;SDS011;35840;45.982;8.890;2024-01-15T03:02:04;7.55;;;5.18;;
49948;SDS011;35840;45.982;8.890;2024-01-15T03:04:31;6.55;;;4.60;;
49948;SDS011;35840;45.982;8.890;2024-01-15T03:06:58;8.00;;;4.80;;
49948;SDS011;35840;45.982;8.890;2024-01-15T03:09:25;7.53;;;4.78;;
49948;SDS011;35840;45.982;8.890;2024-01-15T03:11:52;9.40;;;5.55;;
49948;SDS011;35840;45.982;8.890;2024-01-15T03:14:19;9.60;;;5.35;;
49948;SDS011;35840;45.982;8.890;2024-01-15T03:16:46;8.68;;;4.90;;
49948;SDS011;35840;45.982;8.890;2024-01-15T03:19:13;8.00;;;5.05;;
49948;SDS011;35840;45.982;8.890;2024-01-15T03:21:40;7.63;;;4.78;;
49948;SDS011;35840;45.982;8.890;2024-01-15T03:24:07;8.38;;;5.10;;
49948;SDS011;35840;45.982;8.890;2024-01-15T03:26:34;7.05;;;4.28;;
49948;SDS011;35840;45.982;8.890;2024-01-15T03:29:00;7.30;;;4.47;;
49948;SDS011;35840;45.982;8.890;2024-01-15T03:31:27;6.75;;;4.35;;
49948;SDS011;35840;45.982;8.890;2024-01-15T03:33:54;8.75;;;5.47;;
49948;SDS011;35840;45.982;8.890;2024-01-15T03:36:21;6.13;;;4.28;;
49948;SDS011;35840;45.982;8.890;2024-01-15T03:38:48;8.88;;;5.00;;
49948;SDS011;35840;45.982;8.890;2024-01-15T03:41:15;7.35;;;5.35;;
49948;SDS011;35840;45.982;8.890;2024-01-15T03:43:42;5.65;;;4.57;;
49948;SDS011;35840;45.982;8.890;2024-01-15T03:46:09;6.95;;;5.00;;
49948;SDS011;35840;45.982;8.890;2024-01-15T03:48:35;11.63;;;5.72;;
49948;SDS011;35840;45.982;8.890;2024-01-15T03:51:03;8.30;;;5.38;;
49948;SDS011;35840;45.982;8.890;2024-01-15T03:53:30;8.25;;;5.57;;
49948;SDS011;35840;45.982;8.890;2024-01-15T03:55:57;9.35;;;5.60;;
49948;SDS011;35840;45.982;8.890;2024-01-15T03:58:24;9.63;;;5.55;;
49948;SDS011;35840;45.982;8.890;2024-01-15T04:00:50;9.07;;;5.55;;
49948;SDS011;35840;45.982;8.890;2024-01-15T04:03:17;8.15;;;5.10;;
49948;SDS011;35840;45.982;8.890;2024-01-15T04:05:44;7.75;;;5.20;;
49948;SDS011;35840;45.982;8.890;2024-01-15T04:08:11;8.77;;;4.72;;
49948;SDS011;35840;45.982;8.890;2024-01-15T04:10:38;6.97;;;5.25;;
49948;SDS011;35840;45.982;8.890;2024-01-15T04:13:04;11.07;;;5.40;;
49948;SDS011;35840;45.982;8.890;2024-01-15T04:15:31;6.97;;;4.47;;
49948;SDS011;35840;45.982;8.890;2024-01-15T04:17:58;6.38;;;4.15;;
49948;SDS011;35840;45.982;8.890;2024-01-15T04:20:25;6.43;;;4.47;;
49948;SDS011;35840;45.982;8.890;2024-01-15T04:22:52;8.82;;;4.38;;
49948;SDS011;35840;45.982;8.890;2024-01-15T04:25:19;5.30;;;4.35;;
49948;SDS011;35840;45.982;8.890;2024-01-15T04:27:46;5.25;;;3.72;;
49948;SDS011;35840;45.982;8.890;2024-01-15T04:30:13;11.77;;;4.63;;
49948;SDS011;35840;45.982;8.890;2024-01-15T04:32:40;8.25;;;3.83;;
49948;SDS011;35840;45.982;8.890;2024-01-15T04:35:07;7.10;;;3.97;;
49948;SDS011;35840;45.982;8.890;2024-01-15T04:37:34;6.07;;;4.68;;
49948;SDS011;35840;45.982;8.890;2024-01-15T04:40:01;8.43;;;5.25;;
49948;SDS011;35840;45.982;8.890;2024-01-15T04:42:30;10.50;;;5.07;;
49948;SDS011;35840;45.982;8.890;2024-01-15T04:44:57;8.88;;;5.03;;
49948;SDS011;35840;45.982;8.890;2024-01-15T04:47:24;10.05;;;4.97;;
49948;SDS011;35840;45.982;8.890;2024-01-15T04:49:51;9.52;;;5.13;;
49948;SDS011;35840;45.982;8.890;2024-01-15T04:52:18;10.18;;;5.25;;
49948;SDS011;35840;45.982;8.890;2024-01-15T04:54:45;8.25;;;5.40;;
49948;SDS011;35840;45.982;8.890;2024-01-15T04:57:12;9.00;;;6.22;;
49948;SDS011;35840;45.982;8.890;2024-01-15T04:59:39;8.40;;;4.38;;
49948;SDS011;35840;45.982;8.890;2024-01-15T05:02:06;12.50;;;5.20;;
49948;SDS011;35840;45.982;8.890;2024-01-15T05:04:33;7.28;;;4.45;;
49948;SDS011;35840;45.982;8.890;2024-01-15T05:07:00;7.93;;;4.97;;
49948;SDS011;35840;45.982;8.890;2024-01-15T05:09:27;13.70;;;6.55;;
49948;SDS011;35840;45.982;8.890;2024-01-15T05:11:58;10.50;;;6.05;;
49948;SDS011;35840;45.982;8.890;2024-01-15T05:14:25;11.98;;;7.18;;
49948;SDS011;35840;45.982;8.890;2024-01-15T05:16:52;12.73;;;6.88;;
49948;SDS011;35840;45.982;8.890;2024-01-15T05:19:19;18.00;;;9.52;;
49948;SDS011;35840;45.982;8.890;2024-01-15T05:21:46;18.70;;;7.97;;
49948;SDS011;35840;45.982;8.890;2024-01-15T05:24:13;10.45;;;6.78;;
49948;SDS011;35840;45.982;8.890;2024-01-15T05:26:40;10.23;;;5.85;;
49948;SDS011;35840;45.982;8.890;2024-01-15T05:29:07;13.77;;;6.03;;
49948;SDS011;35840;45.982;8.890;2024-01-15T05:31:35;7.93;;;4.85;;
49948;SDS011;35840;45.982;8.890;2024-01-15T05:34:02;9.32;;;5.88;;
49948;SDS011;35840;45.982;8.890;2024-01-15T05:36:29;7.22;;;4.70;;
49948;SDS011;35840;45.982;8.890;2024-01-15T05:38:56;8.43;;;4.55;;
49948;SDS011;35840;45.982;8.890;2024-01-15T05:41:24;7.13;;;5.00;;
49948;SDS011;35840;45.982;8.890;2024-01-15T05:43:50;9.55;;;5.13;;
49948;SDS011;35840;45.982;8.890;2024-01-15T05:46:18;5.47;;;3.65;;
49948;SDS011;35840;45.982;8.890;2024-01-15T05:48:45;7.20;;;3.85;;
49948;SDS011;35840;45.982;8.890;2024-01-15T05:51:12;8.10;;;3.55;;
49948;SDS011;35840;45.982;8.890;2024-01-15T05:53:40;6.82;;;4.45;;
49948;SDS011;35840;45.982;8.890;2024-01-15T05:56:09;6.40;;;3.88;;
49948;SDS011;35840;45.982;8.890;2024-01-15T05:58:37;8.02;;;4.43;;
49948;SDS011;35840;45.982;8.890;2024-01-15T06:01:04;5.80;;;3.67;;
49948;SDS011;35840;45.982;8.890;2024-01-15T06:03:31;5.22;;;3.35;;
49948;SDS011;35840;45.982;8.890;2024-01-15T06:05:58;7.75;;;5.10;;
49948;SDS011;35840;45.982;8.890;2024-01-15T06:08:25;8.25;;;5.25;;
49948;SDS011;35840;45.982;8.890;2024-01-15T06:10:53;8.52;;;5.32;;
49948;SDS011;35840;45.982;8.890;2024-01-15T06:13:23;9.07;;;4.38;;
49948;SDS011;35840;45.982;8.890;2024-01-15T06:15:50;9.95;;;5.03;;
49948;SDS011;35840;45.982;8.890;2024-01-15T06:18:17;9.63;;;5.43;;
49948;SDS011;35840;45.982;8.890;2024-01-15T06:20:43;9.32;;;5.47;;
49948;SDS011;35840;45.982;8.890;2024-01-15T06:23:10;8.52;;;5.47;;
49948;SDS011;35840;45.982;8.890;2024-01-15T06:25:38;9.77;;;4.97;;
49948;SDS011;35840;45.982;8.890;2024-01-15T06:28:04;10.45;;;5.72;;
49948;SDS011;35840;45.982;8.890;2024-01-15T06:30:31;7.85;;;4.70;;
49948;SDS011;35840;45.982;8.890;2024-01-15T06:32:58;11.63;;;5.32;;
49948;SDS011;35840;45.982;8.890;2024-01-15T06:35:25;9.88;;;4.78;;
49948;SDS011;35840;45.982;8.890;2024-01-15T06:37:52;6.50;;;3.85;;
49948;SDS011;35840;45.982;8.890;2024-01-15T06:40:19;6.70;;;4.68;;
49948;SDS011;35840;45.982;8.890;2024-01-15T06:42:46;7.00;;;4.72;;
49948;SDS011;35840;45.982;8.890;2024-01-15T06:45:13;12.05;;;5.05;;
49948;SDS011;35840;45.982;8.890;2024-01-15T06:47:40;7.18;;;4.32;;
49948;SDS011;35840;45.982;8.890;2024-01-15T06:50:08;7.03;;;4.45;;
49948;SDS011;35840;45.982;8.890;2024-01-15T06:52:35;7.97;;;3.88;;
49948;SDS011;35840;45.982;8.890;2024-01-15T06:55:03;8.63;;;4.72;;
49948;SDS011;35840;45.982;8.890;2024-01-15T06:57:30;6.95;;;4.05;;
49948;SDS011;35840;45.982;8.890;2024-01-15T06:59:57;6.63;;;3.85;;
49948;SDS011;35840;45.982;8.890;2024-01-15T07:02:24;6.97;;;4.25;;
49948;SDS011;35840;45.982;8.890;2024-01-15T07:04:50;7.45;;;4.28;;
49948;SDS011;35840;45.982;8.890;2024-01-15T07:07:17;5.43;;;3.42;;
49948;SDS011;35840;45.982;8.890;2024-01-15T07:09:44;6.03;;;3.92;;
49948;SDS011;35840;45.982;8.890;2024-01-15T07:12:11;6.22;;;4.55;;
49948;SDS011;35840;45.982;8.890;2024-01-15T07:14:38;5.00;;;3.53;;
49948;SDS011;35840;45.982;8.890;2024-01-15T07:17:04;6.20;;;4.25;;
49948;SDS011;35840;45.982;8.890;2024-01-15T07:19:31;5.90;;;3.65;;
49948;SDS011;35840;45.982;8.890;2024-01-15T07:21:58;6.90;;;3.78;;
49948;SDS011;35840;45.982;8.890;2024-01-15T07:24:25;5.43;;;3.63;;
49948;SDS011;35840;45.982;8.890;2024-01-15T07:26:52;4.93;;;3.47;;
49948;SDS011;35840;45.982;8.890;2024-01-15T07:29:19;5.80;;;3.75;;
49948;SDS011;35840;45.982;8.890;2024-01-15T07:31:52;5.80;;;3.97;;
49948;SDS011;35840;45.982;8.890;2024-01-15T07:34:20;5.60;;;3.45;;
49948;SDS011;35840;45.982;8.890;2024-01-15T07:36:47;4.90;;;3.50;;
49948;SDS011;35840;45.982;8.890;2024-01-15T07:39:13;6.60;;;4.45;;
49948;SDS011;35840;45.982;8.890;2024-01-15T07:41:40;14.00;;;6.50;;
49948;SDS011;35840;45.982;8.890;2024-01-15T07:44:08;10.45;;;5.88;;
49948;SDS011;35840;45.982;8.890;2024-01-15T07:46:34;9.50;;;5.20;;
49948;SDS011;35840;45.982;8.890;2024-01-15T07:49:01;9.40;;;5.13;;
49948;SDS011;35840;45.982;8.890;2024-01-15T07:51:28;15.00;;;7.65;;
49948;SDS011;35840;45.982;8.890;2024-01-15T07:53:55;13.02;;;7.22;;
49948;SDS011;35840;45.982;8.890;2024-01-15T07:56:22;13.57;;;7.28;;
49948;SDS011;35840;45.982;8.890;2024-01-15T07:58:49;15.35;;;6.82;;
49948;SDS011;35840;45.982;8.890;2024-01-15T08:01:16;13.85;;;7.43;;
49948;SDS011;35840;45.982;8.890;2024-01-15T08:03:44;12.98;;;7.93;;
49948;SDS011;35840;45.982;8.890;2024-01-15T08:06:10;15.25;;;8.10;;
49948;SDS011;35840;45.982;8.890;2024-01-15T08:08:38;15.68;;;6.85;;
49948;SDS011;35840;45.982;8.890;2024-01-15T08:11:05;11.15;;;6.65;;
49948;SDS011;35840;45.982;8.890;2024-01-15T08:13:32;9.95;;;6.35;;
49948;SDS011;35840;45.982;8.890;2024-01-15T08:15:59;9.52;;;5.93;;
49948;SDS011;35840;45.982;8.890;2024-01-15T08:18:26;10.30;;;5.57;;
49948;SDS011;35840;45.982;8.890;2024-01-15T08:20:53;11.77;;;6.13;;
49948;SDS011;35840;45.982;8.890;2024-01-15T08:23:20;9.15;;;6.22;;
49948;SDS011;35840;45.982;8.890;2024-01-15T08:25:47;9.75;;;6.30;;
49948;SDS011;35840;45.982;8.890;2024-01-15T08:28:14;8.35;;;5.55;;
49948;SDS011;35840;45.982;8.890;2024-01-15T08:30:41;12.65;;;6.43;;
49948;SDS011;35840;45.982;8.890;2024-01-15T08:33:08;13.10;;;7.22;;
49948;SDS011;35840;45.982;8.890;2024-01-15T08:35:46;12.82;;;6.13;;
49948;SDS011;35840;45.982;8.890;2024-01-15T08:38:13;12.82;;;5.75;;
49948;SDS011;35840;45.982;8.890;2024-01-15T08:40:40;16.00;;;7.32;;
49948;SDS011;35840;45.982;8.890;2024-01-15T08:43:07;11.15;;;6.30;;
49948;SDS011;35840;45.982;8.890;2024-01-15T08:45:35;8.82;;;6.07;;
49948;SDS011;35840;45.982;8.890;2024-01-15T08:48:02;11.95;;;6.05;;
49948;SDS011;35840;45.982;8.890;2024-01-15T08:50:30;10.98;;;6.53;;
49948;SDS011;35840;45.982;8.890;2024-01-15T08:52:58;12.10;;;7.13;;
49948;SDS011;35840;45.982;8.890;2024-01-15T08:55:25;11.38;;;6.70;;
49948;SDS011;35840;45.982;8.890;2024-01-15T08:57:52;11.43;;;6.55;;
49948;SDS011;35840;45.982;8.890;2024-01-15T09:00:19;11.57;;;6.22;;
49948;SDS011;35840;45.982;8.890;2024-01-15T09:02:46;10.63;;;6.80;;
49948;SDS011;35840;45.982;8.890;2024-01-15T09:05:13;11.82;;;6.18;;
49948;SDS011;35840;45.982;8.890;2024-01-15T09:07:40;8.82;;;6.57;;
49948;SDS011;35840;45.982;8.890;2024-01-15T09:10:07;11.27;;;6.22;;
49948;SDS011;35840;45.982;8.890;2024-01-15T09:12:34;12.73;;;6.93;;
49948;SDS011;35840;45.982;8.890;2024-01-15T09:15:01;11.13;;;6.57;;
49948;SDS011;35840;45.982;8.890;2024-01-15T09:17:31;14.07;;;6.50;;
49948;SDS011;35840;45.982;8.890;2024-01-15T09:19:58;10.73;;;6.38;;
49948;SDS011;35840;45.982;8.890;2024-01-15T09:22:26;11.00;;;6.55;;
49948;SDS011;35840;45.982;8.890;2024-01-15T09:24:52;8.90;;;6.05;;
49948;SDS011;35840;45.982;8.890;2024-01-15T09:27:19;11.02;;;6.43;;
49948;SDS011;35840;45.982;8.890;2024-01-15T09:29:46;9.82;;;5.78;;
49948;SDS011;35840;45.982;8.890;2024-01-15T09:32:13;8.23;;;6.15;;
49948;SDS011;35840;45.982;8.890;2024-01-15T09:34:40;10.95;;;6.28;;
49948;SDS011;35840;45.982;8.890;2024-01-15T09:37:08;9.82;;;6.43;;
49948;SDS011;35840;45.982;8.890;2024-01-15T09:39:40;9.73;;;5.43;;
49948;SDS011;35840;45.982;8.890;2024-01-15T09:42:07;12.13;;;6.05;;
49948;SDS011;35840;45.982;8.890;2024-01-15T09:44:35;14.85;;;7.43;;
49948;SDS011;35840;45.982;8.890;2024-01-15T09:47:03;11.65;;;7.40;;
49948;SDS011;35840;45.982;8.890;2024-01-15T09:49:31;10.88;;;6.88;;
49948;SDS011;35840;45.982;8.890;2024-01-15T09:51:59;13.05;;;7.32;;
49948;SDS011;35840;45.982;8.890;2024-01-15T09:54:37;11.50;;;6.70;;
49948;SDS011;35840;45.982;8.890;2024-01-15T09:57:09;11.10;;;6.85;;
49948;SDS011;35840;45.982;8.890;2024-01-15T09:59:36;10.23;;;6.18;;
49948;SDS011;35840;45.982;8.890;2024-01-15T10:02:05;10.43;;;6.20;;
49948;SDS011;35840;45.982;8.890;2024-01-15T10:04:33;9.73;;;6.03;;
49948;SDS011;35840;45.982;8.890;2024-01-15T10:07:00;9.40;;;5.97;;
49948;SDS011;35840;45.982;8.890;2024-01-15T10:09:27;8.93;;;5.90;;
49948;SDS011;35840;45.982;8.890;2024-01-15T10:11:54;11.00;;;6.70;;
49948;SDS011;35840;45.982;8.890;2024-01-15T10:14:21;10.85;;;6.20;;
49948;SDS011;35840;45.982;8.890;2024-01-15T10:16:48;8.73;;;5.78;;
49948;SDS011;35840;45.982;8.890;2024-01-15T10:19:15;12.98;;;6.65;;
49948;SDS011;35840;45.982;8.890;2024-01-15T10:21:42;11.50;;;6.22;;
49948;SDS011;35840;45.982;8.890;2024-01-15T10:24:08;9.90;;;6.63;;
49948;SDS011;35840;45.982;8.890;2024-01-15T10:26:35;9.70;;;6.90;;
49948;SDS011;35840;45.982;8.890;2024-01-15T10:29:02;9.40;;;7.03;;
49948;SDS011;35840;45.982;8.890;2024-01-15T10:31:29;9.20;;;6.25;;
49948;SDS011;35840;45.982;8.890;2024-01-15T10:34:15;12.20;;;7.65;;
49948;SDS011;35840;45.982;8.890;2024-01-15T10:36:45;12.98;;;8.10;;
49948;SDS011;35840;45.982;8.890;2024-01-15T10:39:14;11.30;;;7.93;;
49948;SDS011;35840;45.982;8.890;2024-01-15T10:41:42;9.93;;;6.18;;
49948;SDS011;35840;45.982;8.890;2024-01-15T10:44:09;8.50;;;5.43;;
49948;SDS011;35840;45.982;8.890;2024-01-15T10:46:36;9.27;;;6.07;;
49948;SDS011;35840;45.982;8.890;2024-01-15T10:49:04;14.30;;;6.40;;
49948;SDS011;35840;45.982;8.890;2024-01-15T10:51:31;6.50;;;4.65;;
49948;SDS011;35840;45.982;8.890;2024-01-15T10:53:59;10.70;;;5.47;;
49948;SDS011;35840;45.982;8.890;2024-01-15T10:56:27;9.35;;;5.38;;
49948;SDS011;35840;45.982;8.890;2024-01-15T10:58:54;7.82;;;4.72;;
49948;SDS011;35840;45.982;8.890;2024-01-15T11:01:26;9.88;;;5.65;;
49948;SDS011;35840;45.982;8.890;2024-01-15T11:03:56;8.88;;;5.35;;
49948;SDS011;35840;45.982;8.890;2024-01-15T11:06:24;9.80;;;5.15;;
49948;SDS011;35840;45.982;8.890;2024-01-15T11:08:54;8.27;;;4.70;;
49948;SDS011;35840;45.982;8.890;2024-01-15T11:11:21;10.25;;;5.80;;
49948;SDS011;35840;45.982;8.890;2024-01-15T11:13:49;6.93;;;4.80;;
49948;SDS011;35840;45.982;8.890;2024-01-15T11:16:18;9.15;;;4.82;;
49948;SDS011;35840;45.982;8.890;2024-01-15T11:21:25;7.65;;;4.70;;
49948;SDS011;35840;45.982;8.890;2024-01-15T11:23:57;7.57;;;5.00;;
49948;SDS011;35840;45.982;8.890;2024-01-15T11:26:28;6.90;;;4.32;;
49948;SDS011;35840;45.982;8.890;2024-01-15T11:28:56;7.15;;;4.78;;
49948;SDS011;35840;45.982;8.890;2024-01-15T11:34:08;7.57;;;5.00;;
49948;SDS011;35840;45.982;8.890;2024-01-15T11:41:56;5.32;;;4.05;;
49948;SDS011;35840;45.982;8.890;2024-01-15T11:44:23;5.53;;;4.25;;
49948;SDS011;35840;45.982;8.890;2024-01-15T11:47:01;7.40;;;4.38;;
49948;SDS011;35840;45.982;8.890;2024-01-15T11:52:48;5.72;;;3.83;;
49948;SDS011;35840;45.982;8.890;2024-01-15T11:55:33;6.43;;;3.88;;
49948;SDS011;35840;45.982;8.890;2024-01-15T11:58:07;6.10;;;4.22;;
49948;SDS011;35840;45.982;8.890;2024-01-15T12:00:42;6.90;;;5.07;;
49948;SDS011;35840;45.982;8.890;2024-01-15T12:03:14;6.28;;;3.92;;
49948;SDS011;35840;45.982;8.890;2024-01-15T12:05:41;6.88;;;4.38;;
49948;SDS011;35840;45.982;8.890;2024-01-15T12:08:09;6.75;;;4.57;;
49948;SDS011;35840;45.982;8.890;2024-01-15T12:10:39;7.47;;;4.57;;
49948;SDS011;35840;45.982;8.890;2024-01-15T12:15:40;8.57;;;4.68;;
49948;SDS011;35840;45.982;8.890;2024-01-15T12:18:09;9.50;;;5.78;;
49948;SDS011;35840;45.982;8.890;2024-01-15T12:20:39;12.27;;;6.43;;
49948;SDS011;35840;45.982;8.890;2024-01-15T12:23:06;10.50;;;6.95;;
49948;SDS011;35840;45.982;8.890;2024-01-15T12:25:35;10.35;;;7.15;;
49948;SDS011;35840;45.982;8.890;2024-01-15T12:28:03;9.27;;;6.07;;
49948;SDS011;35840;45.982;8.890;2024-01-15T12:30:30;10.95;;;6.55;;
49948;SDS011;35840;45.982;8.890;2024-01-15T12:33:02;12.85;;;6.55;;
49948;SDS011;35840;45.982;8.890;2024-01-15T12:35:33;11.57;;;6.90;;
49948;SDS011;35840;45.982;8.890;2024-01-15T12:38:01;10.15;;;6.50;;
49948;SDS011;35840;45.982;8.890;2024-01-15T12:40:32;11.10;;;6.88;;
49948;SDS011;35840;45.982;8.890;2024-01-15T12:43:02;7.97;;;5.47;;
49948;SDS011;35840;45.982;8.890;2024-01-15T12:45:29;8.82;;;5.88;;
49948;SDS011;35840;45.982;8.890;2024-01-15T12:47:58;12.38;;;6.30;;
49948;SDS011;35840;45.982;8.890;2024-01-15T12:50:25;8.40;;;5.60;;
49948;SDS011;35840;45.982;8.890;2024-01-15T12:52:52;7.88;;;5.28;;
49948;SDS011;35840;45.982;8.890;2024-01-15T12:55:19;7.10;;;5.07;;
49948;SDS011;35840;45.982;8.890;2024-01-15T12:57:46;8.32;;;5.30;;
49948;SDS011;35840;45.982;8.890;2024-01-15T13:00:13;7.30;;;4.68;;
49948;SDS011;35840;45.982;8.890;2024-01-15T13:02:44;7.07;;;5.22;;
49948;SDS011;35840;45.982;8.890;2024-01-15T13:05:11;5.82;;;4.65;;
49948;SDS011;35840;45.982;8.890;2024-01-15T13:07:40;9.07;;;4.95;;
49948;SDS011;35840;45.982;8.890;2024-01-15T13:10:07;7.00;;;4.20;;
49948;SDS011;35840;45.982;8.890;2024-01-15T13:12:39;4.57;;;3.97;;
49948;SDS011;35840;45.982;8.890;2024-01-15T13:15:07;7.93;;;4.70;;
49948;SDS011;35840;45.982;8.890;2024-01-15T13:17:40;6.78;;;4.82;;
49948;SDS011;35840;45.982;8.890;2024-01-15T13:20:08;8.85;;;5.43;;
49948;SDS011;35840;45.982;8.890;2024-01-15T13:22:37;9.23;;;6.25;;
49948;SDS011;35840;45.982;8.890;2024-01-15T13:25:06;10.00;;;6.15;;
49948;SDS011;35840;45.982;8.890;2024-01-15T13:27:34;10.38;;;6.68;;
49948;SDS011;35840;45.982;8.890;2024-01-15T13:30:02;8.32;;;5.32;;
49948;SDS011;35840;45.982;8.890;2024-01-15T13:32:30;9.20;;;6.18;;
49948;SDS011;35840;45.982;8.890;2024-01-15T13:34:56;8.38;;;6.07;;
49948;SDS011;35840;45.982;8.890;2024-01-15T13:37:24;7.63;;;5.47;;
49948;SDS011;35840;45.982;8.890;2024-01-15T13:39:51;10.40;;;4.50;;
49948;SDS011;35840;45.982;8.890;2024-01-15T13:42:19;7.20;;;4.90;;
49948;SDS011;35840;45.982;8.890;2024-01-15T13:44:50;11.02;;;5.32;;
49948;SDS011;35840;45.982;8.890;2024-01-15T13:47:17;9.27;;;6.30;;
49948;SDS011;35840;45.982;8.890;2024-01-15T13:49:44;10.48;;;6.63;;
49948;SDS011;35840;45.982;8.890;2024-01-15T13:52:11;8.82;;;5.57;;
49948;SDS011;35840;45.982;8.890;2024-01-15T13:54:39;11.02;;;5.50;;
49948;SDS011;35840;45.982;8.890;2024-01-15T13:57:19;10.23;;;6.15;;
49948;SDS011;35840;45.982;8.890;2024-01-15T13:59:46;8.65;;;4.95;;
49948;SDS011;35840;45.982;8.890;2024-01-15T14:02:14;10.85;;;6.55;;
49948;SDS011;35840;45.982;8.890;2024-01-15T14:04:46;10.10;;;5.80;;
49948;SDS011;35840;45.982;8.890;2024-01-15T14:07:14;8.98;;;5.55;;
49948;SDS011;35840;45.982;8.890;2024-01-15T14:09:42;12.90;;;6.75;;
49948;SDS011;35840;45.982;8.890;2024-01-15T14:12:09;9.23;;;5.30;;
49948;SDS011;35840;45.982;8.890;2024-01-15T14:14:36;13.55;;;5.65;;
49948;SDS011;35840;45.982;8.890;2024-01-15T14:17:02;8.45;;;5.72;;
49948;SDS011;35840;45.982;8.890;2024-01-15T14:19:30;7.78;;;5.63;;
49948;SDS011;35840;45.982;8.890;2024-01-15T14:21:57;18.30;;;6.80;;
49948;SDS011;35840;45.982;8.890;2024-01-15T14:24:24;10.35;;;6.40;;
49948;SDS011;35840;45.982;8.890;2024-01-15T14:26:50;10.90;;;7.45;;
49948;SDS011;35840;45.982;8.890;2024-01-15T14:29:17;9.00;;;6.47;;
49948;SDS011;35840;45.982;8.890;2024-01-15T14:31:47;9.35;;;6.25;;
49948;SDS011;35840;45.982;8.890;2024-01-15T14:34:14;9.15;;;6.63;;
49948;SDS011;35840;45.982;8.890;2024-01-15T14:36:42;9.30;;;6.72;;
49948;SDS011;35840;45.982;8.890;2024-01-15T14:39:09;11.85;;;6.53;;
49948;SDS011;35840;45.982;8.890;2024-01-15T14:41:38;10.05;;;6.25;;
49948;SDS011;35840;45.982;8.890;2024-01-15T14:44:05;8.57;;;6.45;;
49948;SDS011;35840;45.982;8.890;2024-01-15T14:46:32;10.18;;;7.25;;
49948;SDS011;35840;45.982;8.890;2024-01-15T14:48:59;10.88;;;6.72;;
49948;SDS011;35840;45.982;8.890;2024-01-15T14:51:26;9.27;;;6.22;;
49948;SDS011;35840;45.982;8.890;2024-01-15T14:53:52;8.57;;;6.30;;
49948;SDS011;35840;45.982;8.890;2024-01-15T14:56:19;9.40;;;6.97;;
49948;SDS011;35840;45.982;8.890;2024-01-15T14:58:47;10.52;;;6.68;;